createdAt,value
2022-07-27T00:01:14.300Z,100.00
2022-07-27T00:04:15.825Z,100.00
2022-07-27T00:07:17.263Z,100.00
2022-07-27T00:10:18.729Z,100.00
2022-07-27T00:13:20.116Z,100.00
2022-07-27T00:16:21.539Z,100.00
2022-07-27T00:19:23.984Z,100.00
2022-07-27T00:22:25.364Z,100.00
2022-07-27T00:25:27.629Z,100.00
2022-07-27T00:28:29.056Z,100.00
2022-07-27T00:31:30.527Z,100.00
2022-07-27T00:34:31.951Z,100.00
2022-07-27T00:37:33.345Z,100.00
2022-07-27T00:40:34.731Z,100.00
2022-07-27T00:43:52.343Z,100.00
2022-07-27T00:46:54.078Z,100.00
2022-07-27T00:49:55.577Z,100.00
2022-07-27T00:52:56.986Z,100.00
2022-07-27T00:55:59.077Z,100.00
2022-07-27T00:59:00.493Z,100.00
2022-07-27T01:02:02.213Z,100.00
2022-07-27T01:05:03.934Z,100.00
2022-07-27T01:08:08.441Z,100.00
2022-07-27T01:11:09.878Z,100.00
2022-07-27T01:14:14.653Z,100.00
2022-07-27T01:17:16.213Z,100.00
2022-07-27T01:20:17.726Z,100.00
2022-07-27T01:23:19.139Z,100.00
2022-07-27T01:26:20.509Z,100.00
2022-07-27T01:29:21.891Z,100.00
2022-07-27T01:32:23.297Z,100.00
2022-07-27T01:35:24.679Z,100.00
2022-07-27T01:38:26.080Z,100.00
2022-07-27T01:41:27.461Z,100.00
2022-07-27T01:44:28.949Z,100.00
2022-07-27T01:47:30.643Z,100.00
2022-07-27T01:50:32.062Z,100.00
2022-07-27T01:53:33.437Z,100.00
2022-07-27T01:56:34.804Z,100.00
2022-07-27T01:59:36.217Z,100.00
2022-07-27T02:02:37.633Z,100.00
2022-07-27T02:05:39.549Z,100.00
2022-07-27T02:08:41.011Z,100.00
2022-07-27T02:12:01.009Z,100.00
2022-07-27T02:15:03.751Z,100.00
2022-07-27T02:18:29.346Z,100.00
2022-07-27T02:21:28.663Z,100.00
2022-07-27T02:24:30.046Z,100.00
2022-07-27T02:27:31.474Z,100.00
2022-07-27T02:30:32.879Z,100.00
2022-07-27T02:33:34.287Z,100.00
2022-07-27T02:36:35.663Z,100.00
2022-07-27T02:39:37.057Z,100.00
2022-07-27T02:42:38.446Z,100.00
2022-07-27T02:45:39.811Z,100.00
2022-07-27T02:48:41.295Z,100.00
2022-07-27T02:51:42.732Z,100.00
2022-07-27T02:54:44.617Z,100.00
2022-07-27T02:57:46.009Z,100.00
2022-07-27T03:00:47.389Z,100.00
2022-07-27T03:03:48.820Z,100.00
2022-07-27T03:06:50.196Z,100.00
2022-07-27T03:09:52.732Z,100.00
2022-07-27T03:12:54.264Z,100.00
2022-07-27T03:15:55.881Z,100.00
2022-07-27T03:19:00.232Z,100.00
2022-07-27T03:22:01.878Z,100.00
2022-07-27T03:25:03.448Z,100.00
2022-07-27T03:28:04.966Z,100.00
2022-07-27T03:31:06.419Z,100.00
2022-07-27T03:34:07.875Z,100.00
2022-07-27T03:37:10.554Z,100.00
2022-07-27T03:40:11.985Z,100.00
2022-07-27T03:43:13.373Z,100.00
2022-07-27T03:46:14.865Z,100.00
2022-07-27T03:49:16.535Z,100.00
2022-07-27T03:52:18.477Z,100.00
2022-07-27T03:55:20.157Z,100.00
2022-07-27T03:58:23.278Z,100.00
2022-07-27T04:01:24.831Z,100.00
2022-07-27T04:04:26.230Z,100.00
2022-07-27T04:07:27.627Z,100.00
2022-07-27T04:10:31.657Z,100.00
2022-07-27T04:13:33.318Z,100.00
2022-07-27T04:16:37.528Z,100.00
2022-07-27T04:19:38.976Z,100.00
2022-07-27T04:22:40.360Z,100.00
2022-07-27T04:25:41.733Z,100.00
2022-07-27T04:28:43.402Z,100.00
2022-07-27T04:31:44.795Z,100.00
2022-07-27T04:34:46.208Z,100.00
2022-07-27T04:37:58.939Z,100.00
2022-07-27T04:41:00.984Z,100.00
2022-07-27T04:44:02.390Z,100.00
2022-07-27T04:47:03.827Z,100.00
2022-07-27T04:50:05.703Z,100.00
2022-07-27T04:53:07.097Z,100.00
2022-07-27T04:56:08.751Z,100.00
2022-07-27T04:59:10.427Z,100.00
2022-07-27T05:02:11.977Z,100.00
2022-07-27T05:05:13.369Z,100.00
2022-07-27T05:08:14.811Z,100.00
2022-07-27T05:11:16.370Z,100.00
2022-07-27T05:14:17.772Z,100.00
2022-07-27T05:17:22.526Z,100.00
2022-07-27T05:20:23.931Z,100.00
2022-07-27T05:23:25.313Z,100.00
2022-07-27T05:26:26.720Z,100.00
2022-07-27T05:29:28.110Z,100.00
2022-07-27T05:32:29.506Z,100.00
2022-07-27T05:35:30.903Z,100.00
2022-07-27T05:38:35.022Z,100.00
2022-07-27T05:41:36.415Z,100.00
2022-07-27T05:44:37.798Z,100.00
2022-07-27T05:47:39.824Z,100.00
2022-07-27T05:50:41.198Z,100.00
2022-07-27T05:53:42.597Z,100.00
2022-07-27T05:56:44.170Z,100.00
2022-07-27T05:59:45.581Z,100.00
2022-07-27T06:02:46.964Z,100.00
2022-07-27T06:05:48.365Z,100.00
2022-07-27T06:08:49.754Z,100.00
2022-07-27T06:11:51.351Z,100.00
2022-07-27T06:14:52.922Z,100.00
2022-07-27T06:17:54.439Z,100.00
2022-07-27T06:20:55.819Z,100.00
2022-07-27T06:23:57.322Z,100.00
2022-07-27T06:26:58.736Z,100.00
2022-07-27T06:30:00.168Z,100.00
2022-07-27T06:33:04.868Z,100.00
2022-07-27T06:36:08.473Z,100.00
2022-07-27T06:39:10.194Z,100.00
2022-07-27T06:42:14.405Z,100.00
2022-07-27T06:45:16.466Z,100.00
2022-07-27T06:48:18.194Z,100.00
2022-07-27T06:51:19.593Z,100.00
2022-07-27T06:54:22.205Z,100.00
2022-07-27T06:57:23.597Z,100.00
2022-07-27T07:00:25.066Z,100.00
2022-07-27T07:03:26.746Z,100.00
2022-07-27T07:06:28.276Z,100.00
2022-07-27T07:09:29.752Z,100.00
2022-07-27T07:12:32.129Z,100.00
2022-07-27T07:15:33.998Z,100.00
2022-07-27T07:18:35.402Z,100.00
2022-07-27T07:21:36.827Z,100.00
2022-07-27T07:24:38.241Z,100.00
2022-07-27T07:27:39.653Z,99.54
2022-07-27T07:30:41.671Z,100.00
2022-07-27T07:33:43.069Z,100.00
2022-07-27T07:36:46.145Z,100.00
2022-07-27T07:39:47.571Z,100.00
2022-07-27T07:42:56.500Z,100.00
2022-07-27T07:45:57.899Z,100.00
2022-07-27T07:48:59.371Z,100.00
2022-07-27T07:52:00.897Z,100.00
2022-07-27T07:55:03.217Z,99.62
2022-07-27T07:58:04.638Z,97.82
2022-07-27T08:01:06.062Z,98.24
2022-07-27T08:04:07.438Z,96.18
2022-07-27T08:07:08.843Z,94.45
2022-07-27T08:10:10.427Z,92.00
2022-07-27T08:13:11.803Z,89.03
2022-07-27T08:16:13.595Z,83.46
2022-07-27T08:19:15.333Z,81.47
2022-07-27T08:22:17.049Z,84.37
2022-07-27T08:25:18.461Z,85.25
2022-07-27T08:28:19.871Z,86.28
2022-07-27T08:31:26.623Z,85.48
2022-07-27T08:34:43.779Z,84.20
2022-07-27T08:37:45.190Z,81.92
2022-07-27T08:40:47.325Z,82.62
2022-07-27T08:43:49.295Z,83.01
2022-07-27T08:46:50.896Z,83.01
2022-07-27T08:49:52.415Z,81.29
2022-07-27T08:52:55.256Z,80.67
2022-07-27T08:55:57.550Z,81.15
2022-07-27T08:58:58.941Z,79.63
2022-07-27T09:02:03.390Z,78.72
2022-07-27T09:05:05.207Z,81.92
2022-07-27T09:08:10.663Z,81.94
2022-07-27T09:11:15.428Z,83.17
2022-07-27T09:14:16.836Z,83.16
2022-07-27T09:20:42.644Z,84.06
2022-07-27T09:23:48.144Z,88.14
2022-07-27T09:26:49.864Z,87.80
2022-07-27T09:29:52.947Z,86.57
2022-07-27T09:32:55.904Z,86.94
2022-07-27T09:36:00.186Z,89.49
2022-07-27T09:39:08.068Z,91.54
2022-07-27T09:42:38.221Z,92.17
2022-07-27T09:45:35.564Z,91.65
2022-07-27T09:48:37.598Z,90.39
2022-07-27T09:52:02.253Z,90.20
2022-07-27T09:55:04.688Z,88.42
2022-07-27T09:58:06.071Z,87.04
2022-07-27T10:01:26.340Z,84.44
2022-07-27T10:04:27.760Z,79.13
2022-07-27T10:07:29.223Z,79.30
2022-07-27T10:10:30.668Z,75.34
2022-07-27T10:13:32.091Z,71.89
2022-07-27T10:16:47.501Z,69.51
2022-07-27T10:19:50.653Z,70.60
2022-07-27T10:22:53.100Z,72.30
2022-07-27T10:26:11.573Z,71.82
2022-07-27T10:29:16.910Z,70.83
2022-07-27T10:32:24.848Z,67.92
2022-07-27T10:35:32.717Z,67.34
2022-07-27T10:38:48.024Z,66.06
2022-07-27T10:41:49.436Z,64.24
2022-07-27T10:45:00.052Z,63.41
2022-07-27T10:48:01.430Z,60.01
2022-07-27T10:51:03.257Z,58.04
2022-07-27T10:54:18.910Z,57.58
2022-07-27T10:57:25.398Z,60.12
2022-07-27T11:00:47.827Z,64.98
2022-07-27T11:03:53.344Z,64.66
2022-07-27T11:10:21.903Z,66.84
2022-07-27T11:13:23.603Z,66.33
2022-07-27T11:16:27.607Z,62.71
2022-07-27T11:19:28.973Z,63.45
2022-07-27T11:23:03.237Z,63.55
2022-07-27T11:25:58.721Z,59.42
2022-07-27T11:29:00.167Z,53.43
2022-07-27T11:32:01.989Z,52.16
2022-07-27T11:35:16.321Z,58.35
2022-07-27T11:38:20.791Z,58.96
2022-07-27T11:42:04.735Z,57.48
2022-07-27T11:44:47.360Z,57.14
2022-07-27T11:47:56.030Z,55.80
2022-07-27T11:50:57.763Z,59.35
2022-07-27T11:54:06.061Z,61.02
2022-07-27T11:57:12.602Z,62.24
2022-07-27T12:00:14.081Z,60.22
2022-07-27T12:03:23.367Z,56.32
2022-07-27T12:06:34.240Z,54.22
2022-07-27T12:09:38.741Z,55.67
2022-07-27T12:12:40.459Z,54.56
2022-07-27T12:15:46.420Z,52.49
2022-07-27T12:18:48.241Z,54.59
2022-07-27T12:21:53.419Z,56.23
2022-07-27T12:24:55.021Z,56.81
2022-07-27T12:27:59.414Z,55.25
2022-07-27T12:31:00.882Z,54.64
2022-07-27T12:34:06.540Z,53.36
2022-07-27T12:37:11.425Z,51.28
2022-07-27T12:40:13.406Z,51.13
2022-07-27T12:43:16.066Z,51.46
2022-07-27T12:46:17.597Z,50.15
2022-07-27T12:49:19.052Z,49.00
2022-07-27T12:52:20.869Z,49.14
2022-07-27T12:55:22.430Z,48.14
2022-07-27T12:58:23.813Z,47.55
2022-07-27T13:01:25.431Z,45.71
2022-07-27T13:04:26.866Z,46.39
2022-07-27T13:07:28.257Z,47.09
2022-07-27T13:10:30.140Z,46.10
2022-07-27T13:13:31.667Z,47.17
2022-07-27T13:16:33.114Z,46.32
2022-07-27T13:19:34.558Z,45.91
2022-07-27T13:22:36.059Z,45.42
2022-07-27T13:25:42.901Z,44.85
2022-07-27T13:28:44.832Z,44.08
2022-07-27T13:31:51.217Z,44.36
2022-07-27T13:34:58.103Z,44.55
2022-07-27T13:37:59.523Z,43.12
2022-07-27T13:41:00.918Z,43.21
2022-07-27T13:44:02.484Z,41.44
2022-07-27T13:47:04.096Z,41.60
2022-07-27T13:50:05.809Z,43.13
2022-07-27T13:53:07.223Z,44.06
2022-07-27T13:56:09.154Z,45.05
2022-07-27T13:59:10.955Z,44.37
2022-07-27T14:02:12.580Z,43.20
2022-07-27T14:05:14.644Z,42.55
2022-07-27T14:08:18.159Z,42.45
2022-07-27T14:11:19.631Z,43.71
2022-07-27T14:14:27.001Z,43.47
2022-07-27T14:17:28.588Z,43.89
2022-07-27T14:20:29.970Z,43.90
2022-07-27T14:23:31.471Z,44.46
2022-07-27T14:26:32.880Z,45.07
2022-07-27T14:29:34.388Z,45.97
2022-07-27T14:32:35.781Z,44.95
2022-07-27T14:35:40.776Z,45.11
2022-07-27T14:38:44.202Z,45.07
2022-07-27T14:41:45.595Z,45.85
2022-07-27T14:44:46.981Z,45.73
2022-07-27T14:47:48.373Z,46.43
2022-07-27T14:50:49.818Z,45.54
2022-07-27T14:53:51.214Z,45.84
2022-07-27T14:56:52.633Z,45.33
2022-07-27T14:59:54.307Z,45.98
2022-07-27T15:02:55.697Z,46.17
2022-07-27T15:05:57.387Z,46.07
2022-07-27T15:08:58.755Z,45.56
2022-07-27T15:12:00.194Z,44.93
2022-07-27T15:15:01.694Z,45.04
2022-07-27T15:18:03.082Z,44.71
2022-07-27T15:21:08.510Z,43.83
2022-07-27T15:24:15.198Z,45.25
2022-07-27T15:27:16.588Z,44.08
2022-07-27T15:30:17.967Z,44.89
2022-07-27T15:33:19.358Z,44.87
2022-07-27T15:36:31.792Z,44.07
2022-07-27T15:39:35.553Z,43.59
2022-07-27T15:42:37.979Z,43.01
2022-07-27T15:45:40.258Z,43.41
2022-07-27T15:48:41.742Z,45.10
2022-07-27T15:51:43.236Z,45.77
2022-07-27T15:54:45.746Z,45.97
2022-07-27T15:57:47.271Z,47.29
2022-07-27T16:00:49.687Z,48.09
2022-07-27T16:03:52.008Z,48.30
2022-07-27T16:06:53.481Z,48.03
2022-07-27T16:09:54.895Z,48.77
2022-07-27T16:12:56.608Z,48.51
2022-07-27T16:16:16.916Z,49.20
2022-07-27T16:19:18.696Z,48.81
2022-07-27T16:22:20.445Z,48.98
2022-07-27T16:25:34.906Z,49.28
2022-07-27T16:28:44.912Z,49.33
2022-07-27T16:31:46.380Z,49.45
2022-07-27T16:34:47.847Z,48.74
2022-07-27T16:37:49.248Z,49.37
2022-07-27T16:40:50.644Z,49.46
2022-07-27T16:43:52.043Z,49.10
2022-07-27T16:46:53.679Z,48.90
2022-07-27T16:49:55.203Z,49.48
2022-07-27T16:52:56.739Z,48.18
2022-07-27T16:55:58.289Z,48.13
2022-07-27T16:58:59.680Z,47.73
2022-07-27T17:02:01.184Z,47.95
2022-07-27T17:05:05.045Z,47.42
2022-07-27T17:08:10.896Z,46.75
2022-07-27T17:11:12.760Z,47.08
2022-07-27T17:14:16.629Z,46.63
2022-07-27T17:17:18.065Z,46.39
2022-07-27T17:20:35.312Z,46.34
2022-07-27T17:23:37.962Z,47.21
2022-07-27T17:26:39.662Z,48.14
2022-07-27T17:29:41.106Z,48.03
2022-07-27T17:32:42.932Z,47.74
2022-07-27T17:35:45.486Z,48.42
2022-07-27T17:38:47.323Z,48.58
2022-07-27T17:41:49.884Z,48.71
2022-07-27T17:44:51.737Z,48.57
2022-07-27T17:47:53.206Z,49.64
2022-07-27T17:50:54.639Z,49.53
2022-07-27T17:53:56.041Z,50.76
2022-07-27T17:56:57.460Z,50.41
2022-07-27T17:59:58.842Z,49.85
2022-07-27T18:03:00.706Z,49.75
2022-07-27T18:06:02.154Z,50.00
2022-07-27T18:09:04.228Z,50.66
2022-07-27T18:12:05.864Z,51.01
2022-07-27T18:15:26.059Z,51.29
2022-07-27T18:18:27.453Z,51.20
2022-07-27T18:21:29.128Z,50.35
2022-07-27T18:24:35.433Z,51.16
2022-07-27T18:27:37.060Z,50.66
2022-07-27T18:30:38.617Z,51.60
2022-07-27T18:33:45.672Z,51.74
2022-07-27T18:36:47.110Z,51.90
2022-07-27T18:39:48.730Z,52.62
2022-07-27T18:42:50.106Z,52.93
2022-07-27T18:45:51.526Z,53.44
2022-07-27T18:48:53.085Z,53.37
2022-07-27T18:51:54.978Z,55.07
2022-07-27T18:54:56.367Z,55.72
2022-07-27T18:57:58.153Z,56.10
2022-07-27T19:00:59.954Z,56.47
2022-07-27T19:04:01.961Z,56.26
2022-07-27T19:07:06.254Z,55.98
2022-07-27T19:10:08.227Z,56.83
2022-07-27T19:13:10.437Z,57.37
2022-07-27T19:16:11.895Z,58.17
2022-07-27T19:19:16.850Z,60.54
2022-07-27T19:22:21.162Z,61.06
2022-07-27T19:25:22.639Z,61.86
2022-07-27T19:28:24.045Z,63.33
2022-07-27T19:31:25.552Z,63.59
2022-07-27T19:34:27.082Z,64.69
2022-07-27T19:37:31.025Z,66.08
2022-07-27T19:40:44.214Z,66.93
2022-07-27T19:43:46.301Z,68.06
2022-07-27T19:46:47.690Z,69.52
2022-07-27T19:49:49.115Z,70.91
2022-07-27T19:52:50.529Z,72.77
2022-07-27T19:55:56.129Z,74.28
2022-07-27T19:58:57.551Z,75.72
2022-07-27T20:01:59.073Z,77.32
2022-07-27T20:05:00.567Z,78.91
2022-07-27T20:08:01.950Z,80.33
2022-07-27T20:11:03.415Z,81.62
2022-07-27T20:14:04.826Z,83.20
2022-07-27T20:17:06.594Z,83.31
2022-07-27T20:20:08.235Z,83.16
2022-07-27T20:23:09.657Z,85.39
2022-07-27T20:26:12.305Z,83.57
2022-07-27T20:29:14.165Z,84.96
2022-07-27T20:32:15.952Z,86.25
2022-07-27T20:35:17.521Z,85.53
2022-07-27T20:38:18.889Z,87.20
2022-07-27T20:41:20.315Z,87.69
2022-07-27T20:44:21.714Z,89.27
2022-07-27T20:47:23.127Z,88.08
2022-07-27T20:50:24.901Z,88.42
2022-07-27T20:53:26.951Z,89.21
2022-07-27T20:56:28.369Z,90.58
2022-07-27T20:59:29.779Z,91.92
2022-07-27T21:02:31.276Z,93.77
2022-07-27T21:05:33.461Z,93.41
2022-07-27T21:08:34.868Z,93.76
2022-07-27T21:11:36.390Z,94.86
2022-07-27T21:14:37.826Z,95.58
2022-07-27T21:17:39.276Z,95.32
2022-07-27T21:20:40.750Z,96.04
2022-07-27T21:24:01.010Z,96.15
2022-07-27T21:27:04.680Z,96.48
2022-07-27T21:30:06.980Z,95.19
2022-07-27T21:33:08.471Z,96.73
2022-07-27T21:36:09.882Z,99.23
2022-07-27T21:39:11.301Z,97.65
2022-07-27T21:42:13.352Z,98.59
2022-07-27T21:45:14.781Z,98.50
2022-07-27T21:48:16.168Z,99.32
2022-07-27T21:51:18.470Z,99.81
2022-07-27T21:54:20.063Z,100.00
2022-07-27T21:57:21.566Z,100.00
2022-07-27T22:00:24.188Z,100.00
2022-07-27T22:03:25.627Z,100.00
2022-07-27T22:06:27.051Z,100.00
2022-07-27T22:09:28.791Z,100.00
2022-07-27T22:12:30.199Z,99.63
2022-07-27T22:15:31.618Z,99.01
2022-07-27T22:18:33.069Z,99.07
2022-07-27T22:21:34.485Z,99.30
2022-07-27T22:24:35.917Z,99.35
2022-07-27T22:27:37.307Z,99.89
2022-07-27T22:30:40.190Z,99.47
2022-07-27T22:33:44.273Z,99.40
2022-07-27T22:36:46.107Z,98.62
2022-07-27T22:39:47.547Z,97.50
2022-07-27T22:42:49.728Z,98.36
2022-07-27T22:45:52.059Z,99.99
2022-07-27T22:48:53.558Z,98.90
2022-07-27T22:51:55.008Z,99.05
2022-07-27T22:54:56.398Z,96.70
2022-07-27T22:57:57.942Z,95.54
2022-07-27T23:00:59.993Z,94.79
2022-07-27T23:04:01.605Z,94.48
2022-07-27T23:07:03.038Z,93.45
2022-07-27T23:10:05.052Z,92.00
2022-07-27T23:13:06.416Z,92.82
2022-07-27T23:16:07.866Z,89.65
2022-07-27T23:19:09.301Z,91.43
2022-07-27T23:22:11.562Z,92.36
2022-07-27T23:25:13.124Z,93.74
2022-07-27T23:28:16.274Z,85.83
2022-07-27T23:31:17.727Z,81.87
2022-07-27T23:34:19.174Z,79.60
2022-07-27T23:37:20.550Z,79.75
2022-07-27T23:40:22.149Z,80.74
2022-07-27T23:43:23.550Z,79.07
2022-07-27T23:46:25.023Z,78.17
2022-07-27T23:49:26.568Z,78.47
2022-07-27T23:52:27.970Z,76.46
2022-07-27T23:55:29.399Z,74.69
2022-07-27T23:58:30.802Z,75.12
